createdAt,value
2018-07-22T00:00:55.967Z,79.30
2018-07-22T00:01:56.147Z,79.44
2018-07-22T00:02:56.333Z,78.83
2018-07-22T00:03:56.522Z,79.73
2018-07-22T00:04:56.709Z,79.11
2018-07-22T00:05:56.895Z,79.15
2018-07-22T00:06:57.086Z,78.96
2018-07-22T00:07:57.273Z,79.15
2018-07-22T00:08:57.466Z,78.44
2018-07-22T00:09:57.647Z,78.00
2018-07-22T00:10:57.830Z,76.56
2018-07-22T00:11:58.016Z,76.26
2018-07-22T00:12:58.202Z,75.46
2018-07-22T00:13:58.404Z,75.49
2018-07-22T00:14:58.573Z,75.46
2018-07-22T00:15:58.755Z,75.69
2018-07-22T00:16:58.942Z,75.02
2018-07-22T00:17:59.132Z,75.07
2018-07-22T00:18:59.320Z,74.88
2018-07-22T00:19:59.496Z,74.69
2018-07-22T00:20:59.692Z,74.40
2018-07-22T00:21:59.885Z,73.92
2018-07-22T00:23:00.074Z,74.11
2018-07-22T00:24:00.260Z,73.54
2018-07-22T00:25:00.451Z,73.15
2018-07-22T00:26:00.637Z,72.48
2018-07-22T00:27:00.823Z,72.58
2018-07-22T00:28:01.022Z,72.38
2018-07-22T00:29:01.206Z,70.94
2018-07-22T00:30:01.380Z,68.92
2018-07-22T00:31:01.579Z,67.29
2018-07-22T00:32:01.767Z,66.91
2018-07-22T00:33:01.947Z,65.84
2018-07-22T00:34:02.146Z,65.94
2018-07-22T00:35:02.336Z,63.25
2018-07-22T00:36:02.520Z,61.71
2018-07-22T00:37:02.705Z,60.75
2018-07-22T00:38:02.893Z,60.08
2018-07-22T00:39:03.078Z,60.56
2018-07-22T00:40:03.269Z,59.69
2018-07-22T00:41:03.453Z,58.83
2018-07-22T00:42:03.632Z,58.54
2018-07-22T00:43:03.816Z,57.58
2018-07-22T00:44:04.006Z,56.91
2018-07-22T00:45:04.200Z,56.52
2018-07-22T00:46:04.373Z,56.91
2018-07-22T00:47:04.578Z,56.52
2018-07-22T00:48:04.762Z,56.91
2018-07-22T00:49:04.959Z,56.14
2018-07-22T00:50:05.137Z,55.85
2018-07-22T00:51:05.307Z,54.79
2018-07-22T00:52:05.502Z,53.83
2018-07-22T00:53:05.671Z,51.91
2018-07-22T00:54:05.883Z,51.53
2018-07-22T00:55:06.055Z,50.66
2018-07-22T00:56:06.232Z,50.76
2018-07-22T00:58:49.130Z,52.68
2018-07-22T00:59:49.340Z,52.58
2018-07-22T01:00:49.522Z,53.25
2018-07-22T01:01:49.713Z,53.06
2018-07-22T01:02:49.901Z,53.25
2018-07-22T01:03:50.086Z,52.77
2018-07-22T01:04:50.275Z,51.91
2018-07-22T01:05:50.466Z,51.69
2018-07-22T01:06:50.648Z,50.34
2018-07-22T01:07:50.844Z,49.77
2018-07-22T01:08:51.007Z,48.90
2018-07-22T01:09:51.202Z,48.52
2018-07-22T01:12:34.101Z,42.56
2018-07-22T01:13:34.290Z,40.55
2018-07-22T01:14:34.468Z,38.72
2018-07-22T01:15:34.654Z,39.11
2018-07-22T01:16:34.838Z,39.11
2018-07-22T01:17:35.024Z,38.62
2018-07-22T01:18:35.214Z,37.37
2018-07-22T01:19:35.390Z,36.60
2018-07-22T01:20:35.589Z,36.51
2018-07-22T01:21:35.773Z,36.90
2018-07-22T01:22:35.963Z,37.18
2018-07-22T01:23:36.141Z,37.95
2018-07-22T01:24:36.338Z,39.29
2018-07-22T01:25:36.517Z,40.83
2018-07-22T01:26:36.703Z,42.37
2018-07-22T01:27:36.892Z,43.04
2018-07-22T01:28:37.081Z,44.10
2018-07-22T01:29:37.278Z,44.10
2018-07-22T01:30:37.459Z,44.38
2018-07-22T01:31:37.648Z,44.38
2018-07-22T01:32:37.837Z,43.91
2018-07-22T01:33:38.024Z,43.71
2018-07-22T01:34:38.209Z,43.14
2018-07-22T01:35:38.398Z,43.91
2018-07-22T01:36:38.584Z,44.77
2018-07-22T01:37:38.784Z,44.87
2018-07-22T01:38:38.968Z,46.12
2018-07-22T01:39:39.166Z,45.06
2018-07-22T01:40:39.376Z,43.23
2018-07-22T01:41:39.543Z,41.99
2018-07-22T01:42:39.716Z,39.58
2018-07-22T01:43:39.914Z,38.24
2018-07-22T01:44:40.097Z,35.72
2018-07-22T01:45:40.295Z,34.30
2018-07-22T01:46:40.461Z,33.53
2018-07-22T01:47:40.637Z,32.95
2018-07-22T01:48:40.849Z,33.15
2018-07-22T01:49:41.020Z,33.24
2018-07-22T01:50:41.197Z,33.53
2018-07-22T01:51:41.379Z,32.95
2018-07-22T01:52:41.568Z,32.55
2018-07-22T01:53:41.758Z,30.92
2018-07-22T01:54:41.945Z,29.86
2018-07-22T01:55:42.148Z,28.23
2018-07-22T01:56:42.321Z,26.70
2018-07-22T01:57:42.537Z,25.54
2018-07-22T01:58:42.688Z,23.91
2018-07-22T01:59:42.879Z,23.82
2018-07-22T02:00:43.068Z,23.62
2018-07-22T02:01:43.331Z,23.43
2018-07-22T02:02:43.434Z,23.43
2018-07-22T02:03:43.622Z,23.33
2018-07-22T02:04:43.807Z,23.62
2018-07-22T02:05:43.995Z,23.33
2018-07-22T02:06:44.199Z,22.56
2018-07-22T02:07:44.358Z,20.64
2018-07-22T02:08:44.533Z,17.67
2018-07-22T02:09:44.735Z,16.61
2018-07-22T02:10:44.934Z,15.65
2018-07-22T02:11:45.111Z,15.26
2018-07-22T02:12:45.288Z,14.98
2018-07-22T02:13:45.468Z,14.50
2018-07-22T02:14:45.653Z,14.69
2018-07-22T02:15:45.850Z,14.98
2018-07-22T02:16:46.023Z,14.88
2018-07-22T02:17:46.209Z,15.28
2018-07-22T02:18:46.391Z,15.65
2018-07-22T02:19:46.579Z,15.26
2018-07-22T02:20:46.769Z,14.50
2018-07-22T02:21:46.957Z,14.21
2018-07-22T02:22:47.140Z,13.73
2018-07-22T02:23:47.327Z,14.11
2018-07-22T02:24:47.510Z,15.46
2018-07-22T02:25:47.713Z,15.08
2018-07-22T02:26:47.873Z,15.17
2018-07-22T02:27:48.072Z,15.26
2018-07-22T02:28:48.257Z,14.98
2018-07-22T02:29:48.444Z,15.46
2018-07-22T02:30:48.626Z,15.46
2018-07-22T02:31:48.811Z,15.95
2018-07-22T02:32:48.981Z,15.94
2018-07-22T02:33:49.176Z,16.13
2018-07-22T02:34:49.361Z,16.13
2018-07-22T02:35:49.541Z,15.94
2018-07-22T02:36:49.731Z,15.65
2018-07-22T02:37:49.924Z,15.46
2018-07-22T02:38:50.117Z,15.36
2018-07-22T02:39:50.287Z,15.55
2018-07-22T02:40:50.473Z,15.65
2018-07-22T02:41:50.654Z,15.84
2018-07-22T02:42:50.843Z,15.75
2018-07-22T02:43:51.023Z,16.03
2018-07-22T02:44:51.206Z,15.46
2018-07-22T02:45:51.390Z,15.84
2018-07-22T02:46:51.565Z,15.36
2018-07-22T02:47:51.748Z,15.46
2018-07-22T02:48:51.947Z,15.17
2018-07-22T02:49:52.118Z,15.37
2018-07-22T02:50:52.304Z,15.85
2018-07-22T02:51:52.491Z,16.14
2018-07-22T02:52:52.666Z,15.85
2018-07-22T02:53:52.849Z,15.84
2018-07-22T02:54:53.031Z,15.85
2018-07-22T02:55:53.214Z,16.42
2018-07-22T02:56:53.401Z,16.52
2018-07-22T02:57:53.589Z,16.52
2018-07-22T02:58:53.773Z,16.52
2018-07-22T02:59:53.954Z,16.23
2018-07-22T03:00:54.162Z,15.94
2018-07-22T03:01:54.313Z,15.46
2018-07-22T03:02:54.509Z,15.47
2018-07-22T03:03:54.683Z,16.04
2018-07-22T03:04:54.893Z,15.65
2018-07-22T03:05:55.076Z,15.55
2018-07-22T03:06:55.260Z,16.04
2018-07-22T03:07:55.445Z,15.75
2018-07-22T03:08:55.627Z,15.75
2018-07-22T03:09:55.815Z,15.84
2018-07-22T03:10:55.997Z,15.84
2018-07-22T03:11:56.186Z,16.04
2018-07-22T03:12:56.363Z,15.46
2018-07-22T03:13:56.544Z,15.46
2018-07-22T03:14:56.762Z,15.36
2018-07-22T03:15:56.902Z,15.08
2018-07-22T03:16:57.111Z,14.50
2018-07-22T03:17:57.297Z,14.59
2018-07-22T03:18:57.484Z,14.79
2018-07-22T03:19:57.659Z,14.59
2018-07-22T03:20:57.860Z,14.79
2018-07-22T03:21:58.039Z,14.88
2018-07-22T03:22:58.244Z,14.50
2018-07-22T03:23:58.432Z,14.88
2018-07-22T03:24:58.615Z,14.11
2018-07-22T03:25:58.798Z,13.92
2018-07-22T03:26:58.984Z,14.31
2018-07-22T03:27:59.188Z,14.31
2018-07-22T03:28:59.374Z,13.82
2018-07-22T03:29:59.559Z,13.92
2018-07-22T03:30:59.752Z,14.40
2018-07-22T03:31:59.940Z,14.88
2018-07-22T03:33:00.154Z,14.50
2018-07-22T03:34:00.307Z,13.82
2018-07-22T03:35:00.504Z,14.21
2018-07-22T03:36:00.679Z,14.11
2018-07-22T03:37:00.855Z,13.73
2018-07-22T03:38:01.032Z,13.73
2018-07-22T03:39:01.207Z,13.73
2018-07-22T03:40:01.394Z,13.73
2018-07-22T03:41:01.576Z,13.06
2018-07-22T03:42:01.761Z,12.58
2018-07-22T03:43:01.953Z,12.58
2018-07-22T03:44:02.135Z,12.19
2018-07-22T03:45:02.339Z,11.81
2018-07-22T03:46:02.535Z,12.87
2018-07-22T03:47:02.699Z,13.44
2018-07-22T03:48:02.887Z,12.87
2018-07-22T03:49:03.058Z,12.77
2018-07-22T03:50:03.227Z,13.25
2018-07-22T03:51:03.417Z,13.25
2018-07-22T03:52:03.601Z,13.73
2018-07-22T03:53:03.776Z,13.74
2018-07-22T03:54:03.977Z,14.79
2018-07-22T03:55:04.149Z,14.50
2018-07-22T03:56:04.341Z,15.28
2018-07-22T03:57:04.529Z,16.14
2018-07-22T03:58:04.710Z,15.66
2018-07-22T03:59:04.918Z,16.42
2018-07-22T04:00:05.097Z,16.52
2018-07-22T04:01:05.288Z,15.84
2018-07-22T04:02:05.468Z,15.55
2018-07-22T04:03:05.658Z,14.11
2018-07-22T04:04:05.840Z,12.87
2018-07-22T04:05:06.017Z,11.81
2018-07-22T04:06:06.213Z,10.37
2018-07-22T04:07:06.472Z,10.17
2018-07-22T04:08:06.601Z,9.41
2018-07-22T04:09:06.774Z,8.73
2018-07-22T04:10:07.018Z,8.45
2018-07-22T04:11:07.199Z,8.26
2018-07-22T04:12:07.376Z,8.26
2018-07-22T04:13:07.561Z,7.78
2018-07-22T04:14:07.739Z,6.82
2018-07-22T04:15:07.941Z,7.10
2018-07-22T04:16:08.145Z,6.62
2018-07-22T04:17:08.332Z,6.15
2018-07-22T04:18:08.524Z,6.05
2018-07-22T04:19:08.708Z,5.95
2018-07-22T04:20:08.894Z,5.95
2018-07-22T04:21:09.084Z,6.52
2018-07-22T04:22:09.274Z,6.15
2018-07-22T04:23:09.453Z,6.52
2018-07-22T04:24:09.652Z,6.34
2018-07-22T04:25:09.836Z,6.52
2018-07-22T04:26:10.047Z,6.72
2018-07-22T04:27:10.234Z,6.52
2018-07-22T04:28:10.418Z,6.34
2018-07-22T04:29:10.623Z,6.72
2018-07-22T04:30:10.824Z,6.62
2018-07-22T04:31:11.010Z,5.76
2018-07-22T04:32:11.182Z,6.15
2018-07-22T04:33:11.374Z,5.95
2018-07-22T04:34:11.547Z,5.66
2018-07-22T04:35:11.761Z,5.57
2018-07-22T04:36:11.937Z,5.28
2018-07-22T04:37:12.122Z,5.28
2018-07-22T04:38:12.303Z,5.47
2018-07-22T04:39:12.489Z,5.66
2018-07-22T04:40:12.678Z,5.47
2018-07-22T04:41:12.877Z,6.82
2018-07-22T04:42:13.054Z,7.20
2018-07-22T04:43:13.240Z,7.39
2018-07-22T04:44:13.428Z,7.29
2018-07-22T04:45:13.604Z,7.20
2018-07-22T04:46:13.790Z,7.20
2018-07-22T04:47:13.980Z,7.20
2018-07-22T04:48:14.170Z,7.29
2018-07-22T04:49:14.341Z,7.10
2018-07-22T04:50:14.549Z,7.40
2018-07-22T04:51:14.733Z,8.35
2018-07-22T04:52:14.921Z,8.45
2018-07-22T04:53:15.108Z,8.64
2018-07-22T04:54:15.314Z,9.03
2018-07-22T04:55:15.464Z,9.41
2018-07-22T04:56:15.650Z,8.93
2018-07-22T04:57:15.831Z,8.64
2018-07-22T04:58:16.033Z,8.35
2018-07-22T04:59:16.219Z,8.64
2018-07-22T05:02:21.098Z,9.99
2018-07-22T05:02:59.254Z,10.56
2018-07-22T05:05:42.140Z,10.37
2018-07-22T05:06:42.315Z,10.08
2018-07-22T05:07:42.504Z,9.22
2018-07-22T05:08:42.689Z,8.73
2018-07-22T05:09:42.870Z,8.35
2018-07-22T05:10:43.051Z,7.87
2018-07-22T05:11:43.240Z,7.68
2018-07-22T05:12:43.406Z,7.78
2018-07-22T05:13:43.590Z,7.97
2018-07-22T05:14:43.787Z,8.06
2018-07-22T05:15:43.981Z,7.68
2018-07-22T05:16:44.161Z,7.59
2018-07-22T05:17:44.344Z,7.49
2018-07-22T05:18:44.519Z,7.29
2018-07-22T05:19:44.723Z,7.68
2018-07-22T05:20:44.912Z,7.68
2018-07-22T05:21:45.116Z,7.78
2018-07-22T05:22:45.293Z,7.78
2018-07-22T05:23:45.474Z,7.97
2018-07-22T05:24:45.657Z,8.06
2018-07-22T05:25:45.844Z,7.49
2018-07-22T05:26:46.010Z,7.39
2018-07-22T05:27:46.227Z,7.78
2018-07-22T05:28:46.415Z,9.22
2018-07-22T05:29:46.610Z,8.64
2018-07-22T05:30:46.772Z,7.68
2018-07-22T05:31:46.953Z,6.43
2018-07-22T05:32:47.128Z,5.85
2018-07-22T05:33:47.310Z,5.66
2018-07-22T05:34:47.509Z,5.57
2018-07-22T05:35:47.719Z,4.99
2018-07-22T05:36:47.881Z,3.84
2018-07-22T05:37:48.071Z,2.69
2018-07-22T05:38:48.253Z,1.44
2018-07-22T05:39:48.474Z,1.15
2018-07-22T05:40:48.631Z,0.76
2018-07-22T05:41:48.817Z,1.06
2018-07-22T05:42:48.984Z,0.09
2018-07-22T05:43:49.170Z,0.00
2018-07-22T05:44:49.366Z,0.00
2018-07-22T05:45:49.550Z,0.00
2018-07-22T05:46:49.738Z,0.00
2018-07-22T05:47:49.922Z,0.00
2018-07-22T05:48:50.099Z,0.00
2018-07-22T05:49:50.287Z,0.00
2018-07-22T05:50:50.473Z,0.00
2018-07-22T05:51:50.663Z,0.00
2018-07-22T05:52:50.845Z,0.00
2018-07-22T05:53:51.079Z,0.00
2018-07-22T05:54:51.215Z,0.00
2018-07-22T05:55:51.427Z,0.00
2018-07-22T05:56:51.628Z,0.00
2018-07-22T05:57:51.798Z,0.00
2018-07-22T05:58:51.999Z,0.00
2018-07-22T05:59:52.184Z,0.00
2018-07-22T06:00:52.365Z,0.00
2018-07-22T06:01:52.558Z,0.00
2018-07-22T06:02:52.734Z,0.00
2018-07-22T06:03:52.931Z,0.00
2018-07-22T06:04:53.125Z,0.00
2018-07-22T06:05:53.328Z,0.00
2018-07-22T06:06:53.515Z,0.00
2018-07-22T06:07:53.693Z,0.00
2018-07-22T06:08:53.877Z,0.00
2018-07-22T06:09:54.060Z,0.00
2018-07-22T06:10:54.249Z,0.00
2018-07-22T06:11:54.471Z,0.00
2018-07-22T06:12:54.610Z,0.00
2018-07-22T06:13:54.800Z,0.00
2018-07-22T06:14:54.972Z,0.00
2018-07-22T06:15:55.170Z,0.00
2018-07-22T06:16:55.347Z,0.00
2018-07-22T06:17:55.531Z,0.00
2018-07-22T06:18:55.716Z,0.00
2018-07-22T06:19:55.912Z,0.00
2018-07-22T06:20:56.100Z,0.00
2018-07-22T06:21:56.290Z,0.00
2018-07-22T06:22:56.479Z,0.00
2018-07-22T06:23:56.672Z,0.00
2018-07-22T06:24:56.874Z,0.00
2018-07-22T06:25:57.035Z,0.00
2018-07-22T06:26:57.209Z,0.00
2018-07-22T06:27:57.420Z,0.00
2018-07-22T06:28:57.603Z,0.00
2018-07-22T06:29:57.783Z,0.00
2018-07-22T06:30:57.971Z,0.00
2018-07-22T06:31:58.154Z,0.00
2018-07-22T06:32:58.335Z,0.00
2018-07-22T06:33:58.527Z,0.00
2018-07-22T06:34:58.713Z,0.00
2018-07-22T06:35:58.905Z,0.00
2018-07-22T06:36:59.083Z,0.00
2018-07-22T06:37:59.274Z,0.00
2018-07-22T06:38:59.448Z,0.00
2018-07-22T06:39:59.636Z,0.00
2018-07-22T06:40:59.869Z,0.67
2018-07-22T06:42:00.018Z,1.82
2018-07-22T06:43:00.206Z,2.21
2018-07-22T06:44:00.378Z,2.01
2018-07-22T06:45:00.553Z,1.73
2018-07-22T06:46:00.793Z,1.44
2018-07-22T06:47:00.919Z,1.92
2018-07-22T06:48:01.107Z,2.40
2018-07-22T06:49:01.275Z,2.69
2018-07-22T06:50:01.482Z,3.36
2018-07-22T06:51:01.656Z,3.45
2018-07-22T06:52:01.827Z,9.89
2018-07-22T06:53:02.014Z,13.06
2018-07-22T06:54:02.200Z,12.77
2018-07-22T06:55:02.385Z,11.33
2018-07-22T06:56:02.582Z,12.59
2018-07-22T06:57:02.749Z,13.83
2018-07-22T06:58:02.927Z,14.41
2018-07-22T06:59:03.107Z,13.35
2018-07-22T07:00:03.312Z,12.01
2018-07-22T07:01:03.540Z,10.38
2018-07-22T07:02:03.680Z,10.08
2018-07-22T07:03:03.865Z,9.99
2018-07-22T07:04:04.064Z,9.31
2018-07-22T07:05:04.295Z,8.45
2018-07-22T07:06:04.412Z,7.50
2018-07-22T07:07:04.598Z,7.31
2018-07-22T07:08:04.781Z,7.21
2018-07-22T07:09:04.959Z,8.17
2018-07-22T07:10:05.145Z,8.94
2018-07-22T07:11:05.355Z,10.00
2018-07-22T07:12:05.506Z,10.00
2018-07-22T07:13:05.691Z,9.52
2018-07-22T07:14:05.867Z,9.32
2018-07-22T07:15:06.048Z,8.26
2018-07-22T07:16:06.234Z,6.34
2018-07-22T07:17:06.415Z,6.53
2018-07-22T07:18:06.590Z,5.47
2018-07-22T07:19:06.768Z,4.32
2018-07-22T07:20:06.946Z,4.03
2018-07-22T07:21:07.124Z,5.57
2018-07-22T07:22:07.304Z,6.44
2018-07-22T07:23:07.494Z,6.43
2018-07-22T07:24:07.677Z,5.77
2018-07-22T07:25:07.874Z,9.61
2018-07-22T07:26:08.051Z,10.38
2018-07-22T07:27:08.244Z,10.09
2018-07-22T07:28:08.415Z,15.57
2018-07-22T07:29:08.603Z,17.30
2018-07-22T07:30:08.789Z,23.07
2018-07-22T07:31:08.974Z,24.99
2018-07-22T07:32:09.157Z,25.18
2018-07-22T07:33:09.349Z,24.70
2018-07-22T07:34:09.531Z,23.55
2018-07-22T07:35:09.699Z,20.86
2018-07-22T07:36:09.920Z,20.57
2018-07-22T07:37:10.094Z,23.36
2018-07-22T07:38:10.300Z,24.61
2018-07-22T07:39:10.495Z,25.28
2018-07-22T07:40:10.681Z,23.07
2018-07-22T07:41:10.866Z,22.01
2018-07-22T07:42:11.088Z,20.47
2018-07-22T07:43:11.245Z,22.97
2018-07-22T07:44:11.407Z,22.69
2018-07-22T07:45:11.608Z,23.07
2018-07-22T07:46:11.817Z,22.69
2018-07-22T07:47:11.994Z,20.95
2018-07-22T07:48:12.174Z,18.84
2018-07-22T07:49:12.372Z,16.34
2018-07-22T07:50:12.560Z,20.18
2018-07-22T07:51:12.736Z,19.42
2018-07-22T07:52:12.948Z,19.32
2018-07-22T07:53:13.125Z,21.82
2018-07-22T07:54:13.312Z,23.46
2018-07-22T07:55:13.496Z,22.22
2018-07-22T07:56:13.695Z,23.94
2018-07-22T07:57:13.875Z,25.01
2018-07-22T07:58:14.087Z,24.33
2018-07-22T07:59:14.269Z,23.56
2018-07-22T08:00:14.454Z,22.12
2018-07-22T08:01:14.638Z,26.06
2018-07-22T08:02:14.828Z,28.08
2018-07-22T08:03:15.000Z,27.60
2018-07-22T08:04:15.177Z,28.37
2018-07-22T08:05:15.352Z,32.51
2018-07-22T08:06:15.550Z,31.35
2018-07-22T08:07:15.744Z,34.05
2018-07-22T08:08:15.931Z,40.88
2018-07-22T08:09:16.114Z,46.16
2018-07-22T08:10:16.298Z,45.20
2018-07-22T08:11:16.499Z,44.14
2018-07-22T08:12:16.656Z,42.50
2018-07-22T08:13:16.845Z,41.26
2018-07-22T08:14:17.030Z,37.02
2018-07-22T08:15:17.201Z,35.77
2018-07-22T08:16:17.381Z,34.14
2018-07-22T08:17:17.565Z,34.05
2018-07-22T08:18:17.737Z,31.95
2018-07-22T08:19:17.924Z,32.04
2018-07-22T08:20:18.107Z,33.39
2018-07-22T08:21:18.290Z,33.39
2018-07-22T08:22:18.508Z,39.26
2018-07-22T08:23:18.686Z,36.85
2018-07-22T08:24:18.828Z,34.06
2018-07-22T08:25:19.034Z,34.25
2018-07-22T08:26:19.226Z,32.34
2018-07-22T08:27:19.407Z,34.56
2018-07-22T08:28:19.584Z,46.69
2018-07-22T08:29:19.771Z,56.22
2018-07-22T08:30:19.955Z,57.67
2018-07-22T08:31:20.140Z,59.78
2018-07-22T08:32:20.330Z,61.22
2018-07-22T08:33:20.509Z,65.40
2018-07-22T08:34:20.696Z,68.29
2018-07-22T08:35:20.904Z,65.94
2018-07-22T08:36:21.114Z,62.99
2018-07-22T08:37:21.294Z,61.45
2018-07-22T08:38:21.479Z,65.30
2018-07-22T08:39:21.658Z,64.82
2018-07-22T08:40:21.851Z,67.42
2018-07-22T08:41:22.099Z,66.75
2018-07-22T08:42:22.204Z,64.53
2018-07-22T08:43:22.393Z,68.10
2018-07-22T08:44:22.574Z,63.76
2018-07-22T08:45:22.783Z,67.61
2018-07-22T08:46:22.981Z,68.87
2018-07-22T08:47:23.143Z,66.07
2018-07-22T08:48:23.336Z,66.27
2018-07-22T08:49:23.529Z,69.35
2018-07-22T08:50:23.719Z,72.63
2018-07-22T08:51:23.897Z,72.72
2018-07-22T08:52:24.099Z,73.97
2018-07-22T08:53:24.303Z,69.83
2018-07-22T08:54:24.465Z,68.00
2018-07-22T08:55:24.654Z,72.43
2018-07-22T08:56:24.836Z,72.81
2018-07-22T08:57:25.022Z,67.33
2018-07-22T08:58:25.218Z,66.69
2018-07-22T08:59:25.422Z,65.43
2018-07-22T09:00:25.584Z,69.77
2018-07-22T09:01:25.760Z,72.37
2018-07-22T09:02:25.948Z,73.62
2018-07-22T09:03:26.135Z,73.43
2018-07-22T09:04:26.325Z,76.80
2018-07-22T09:05:26.536Z,74.01
2018-07-22T09:06:26.699Z,72.18
2018-07-22T09:07:26.883Z,78.15
2018-07-22T09:08:27.077Z,76.80
2018-07-22T09:09:27.268Z,76.32
2018-07-22T09:10:27.470Z,75.74
2018-07-22T09:11:27.625Z,75.84
2018-07-22T09:12:27.798Z,75.36
2018-07-22T09:13:28.013Z,74.49
2018-07-22T09:14:28.198Z,78.54
2018-07-22T09:15:28.387Z,77.67
2018-07-22T09:16:28.629Z,77.86
2018-07-22T09:17:28.823Z,70.15
2018-07-22T09:18:29.020Z,77.09
2018-07-22T09:19:29.198Z,72.99
2018-07-22T09:20:29.394Z,74.05
2018-07-22T09:21:29.588Z,76.36
2018-07-22T09:22:29.776Z,74.24
2018-07-22T09:23:29.985Z,75.68
2018-07-22T09:24:30.180Z,78.00
2018-07-22T09:25:30.365Z,80.45
2018-07-22T09:26:30.550Z,80.60
2018-07-22T09:27:30.770Z,83.69
2018-07-22T09:28:30.970Z,85.61
2018-07-22T09:29:31.145Z,82.53
2018-07-22T09:30:31.361Z,86.00
2018-07-22T09:31:31.573Z,85.19
2018-07-22T09:32:31.761Z,84.32
2018-07-22T09:33:31.947Z,81.43
2018-07-22T09:34:32.135Z,85.38
2018-07-22T09:35:32.314Z,85.86
2018-07-22T09:36:32.521Z,81.14
2018-07-22T09:37:32.692Z,79.74
2018-07-22T09:38:32.910Z,82.53
2018-07-22T09:39:33.106Z,86.48
2018-07-22T09:40:33.314Z,86.44
2018-07-22T09:41:33.471Z,89.91
2018-07-22T09:42:33.664Z,88.95
2018-07-22T09:43:33.851Z,87.40
2018-07-22T09:44:34.041Z,86.15
2018-07-22T09:45:34.223Z,88.56
2018-07-22T09:46:34.409Z,87.30
2018-07-22T09:47:34.592Z,82.29
2018-07-22T09:48:34.793Z,85.23
2018-07-22T09:49:34.981Z,85.81
2018-07-22T09:50:35.163Z,88.41
2018-07-22T09:51:35.369Z,89.57
2018-07-22T09:52:35.535Z,90.82
2018-07-22T09:53:35.778Z,87.35
2018-07-22T09:54:35.921Z,88.99
2018-07-22T09:55:36.094Z,89.18
2018-07-22T09:58:19.008Z,89.42
2018-07-22T09:59:19.219Z,91.16
2018-07-22T10:00:19.388Z,90.38
2018-07-22T10:01:19.578Z,91.74
2018-07-22T10:02:19.765Z,93.08
2018-07-22T10:03:19.955Z,92.60
2018-07-22T10:04:20.145Z,92.60
2018-07-22T10:05:20.335Z,94.96
2018-07-22T10:06:20.529Z,94.63
2018-07-22T10:07:20.719Z,94.00
2018-07-22T10:08:20.909Z,96.31
2018-07-22T10:09:21.097Z,94.58
2018-07-22T10:10:21.287Z,94.92
2018-07-22T10:11:21.477Z,94.78
2018-07-22T10:12:21.664Z,94.96
2018-07-22T10:13:21.855Z,94.73
2018-07-22T10:14:22.126Z,95.21
2018-07-22T10:15:22.235Z,95.88
2018-07-22T10:16:22.423Z,95.11
2018-07-22T10:17:22.613Z,94.87
2018-07-22T10:18:22.803Z,96.03
2018-07-22T10:19:22.992Z,94.82
2018-07-22T10:20:23.178Z,95.74
2018-07-22T10:21:23.363Z,97.19
2018-07-22T10:22:23.553Z,96.46
2018-07-22T10:23:23.782Z,94.14
2018-07-22T10:24:23.935Z,97.14
2018-07-22T10:25:24.106Z,97.04
2018-07-22T10:26:24.298Z,95.93
2018-07-22T10:27:24.479Z,98.05
2018-07-22T10:28:24.684Z,96.70
2018-07-22T10:29:24.887Z,97.47
2018-07-22T10:30:25.060Z,98.63
2018-07-22T10:31:25.245Z,97.96
2018-07-22T10:32:25.435Z,99.02
2018-07-22T10:33:25.620Z,98.83
2018-07-22T10:34:25.806Z,98.25
2018-07-22T10:35:26.024Z,99.41
2018-07-22T10:36:26.207Z,98.83
2018-07-22T10:37:26.405Z,98.83
2018-07-22T10:38:26.571Z,98.93
2018-07-22T10:39:26.756Z,99.55
2018-07-22T10:40:26.960Z,99.21
2018-07-22T10:41:27.134Z,99.99
2018-07-22T10:42:27.326Z,99.31
2018-07-22T10:43:27.505Z,99.89
2018-07-22T10:44:27.689Z,99.99
2018-07-22T10:45:27.928Z,99.99
2018-07-22T10:46:28.073Z,99.99
2018-07-22T10:47:28.268Z,99.16
2018-07-22T10:48:28.478Z,99.84
2018-07-22T10:49:28.700Z,99.55
2018-07-22T10:50:28.869Z,99.99
2018-07-22T10:51:29.053Z,99.74
2018-07-22T10:52:29.243Z,99.99
2018-07-22T10:53:29.476Z,99.99
2018-07-22T10:54:29.619Z,99.99
2018-07-22T10:55:29.820Z,99.65
2018-07-22T10:56:30.010Z,99.99
2018-07-22T10:57:30.183Z,99.99
2018-07-22T10:58:30.376Z,99.99
2018-07-22T10:59:30.579Z,99.99
2018-07-22T11:00:30.766Z,99.99
2018-07-22T11:01:30.979Z,99.65
2018-07-22T11:02:31.252Z,99.99
2018-07-22T11:03:31.362Z,99.46
2018-07-22T11:04:31.572Z,99.55
2018-07-22T11:05:31.719Z,98.58
2018-07-22T11:06:31.918Z,99.94
2018-07-22T11:07:32.092Z,98.68
2018-07-22T11:08:32.281Z,99.99
2018-07-22T11:09:32.471Z,99.99
2018-07-22T11:10:32.662Z,99.99
2018-07-22T11:11:32.855Z,99.16
2018-07-22T11:12:33.046Z,99.36
2018-07-22T11:13:33.239Z,98.58
2018-07-22T11:14:33.454Z,99.46
2018-07-22T11:15:33.627Z,99.99
2018-07-22T11:16:33.783Z,99.36
2018-07-22T11:17:33.973Z,99.74
2018-07-22T11:18:34.171Z,99.99
2018-07-22T11:19:34.380Z,99.99
2018-07-22T11:20:34.595Z,99.99
2018-07-22T11:21:34.769Z,98.93
2018-07-22T11:22:34.982Z,99.79
2018-07-22T11:23:35.171Z,99.46
2018-07-22T11:24:35.364Z,99.79
2018-07-22T11:25:35.555Z,99.46
2018-07-22T11:26:35.762Z,99.55
2018-07-22T11:27:35.914Z,99.46
2018-07-22T11:28:36.107Z,99.84
2018-07-22T11:29:36.291Z,99.84
2018-07-22T11:30:36.480Z,99.46
2018-07-22T11:31:36.675Z,99.99
2018-07-22T11:32:36.852Z,99.55
2018-07-22T11:33:37.045Z,99.07
2018-07-22T11:34:37.233Z,98.68
2018-07-22T11:35:37.434Z,99.60
2018-07-22T11:36:37.622Z,99.21
2018-07-22T11:37:37.801Z,99.31
2018-07-22T11:38:37.997Z,99.99
2018-07-22T11:39:38.164Z,99.99
2018-07-22T11:40:38.348Z,97.91
2018-07-22T11:41:38.539Z,97.91
2018-07-22T11:42:38.744Z,96.75
2018-07-22T11:43:38.917Z,97.81
2018-07-22T11:44:39.103Z,96.89
2018-07-22T11:45:39.308Z,98.15
2018-07-22T11:46:39.500Z,97.47
2018-07-22T11:47:39.722Z,97.13
2018-07-22T11:48:39.871Z,94.81
2018-07-22T11:49:40.077Z,93.94
2018-07-22T11:50:40.339Z,94.57
2018-07-22T11:51:40.459Z,96.31
2018-07-22T11:52:40.642Z,95.19
2018-07-22T11:53:40.832Z,93.93
2018-07-22T11:54:41.026Z,92.77
2018-07-22T11:55:41.213Z,93.64
2018-07-22T11:56:41.406Z,94.71
2018-07-22T11:57:41.576Z,93.64
2018-07-22T11:58:41.757Z,93.74
2018-07-22T11:59:41.949Z,91.65
2018-07-22T12:00:42.135Z,90.97
2018-07-22T12:01:42.327Z,95.77
2018-07-22T12:02:42.520Z,93.25
2018-07-22T12:03:42.708Z,92.38
2018-07-22T12:04:42.903Z,90.97
2018-07-22T12:05:43.112Z,93.26
2018-07-22T12:06:43.279Z,92.19
2018-07-22T12:07:43.491Z,91.27
2018-07-22T12:08:43.657Z,91.56
2018-07-22T12:09:43.852Z,92.49
2018-07-22T12:10:44.052Z,94.71
2018-07-22T12:11:44.254Z,95.25
2018-07-22T12:12:44.418Z,95.34
2018-07-22T12:13:44.602Z,94.51
2018-07-22T12:14:44.809Z,94.81
2018-07-22T12:15:44.985Z,92.09
2018-07-22T12:16:45.178Z,92.52
2018-07-22T12:17:45.378Z,91.70
2018-07-22T12:18:45.596Z,91.89
2018-07-22T12:19:45.790Z,89.76
2018-07-22T12:20:45.987Z,91.31
2018-07-22T12:21:46.193Z,89.07
2018-07-22T12:22:46.358Z,89.61
2018-07-22T12:23:46.550Z,89.67
2018-07-22T12:24:46.740Z,89.43
2018-07-22T12:25:46.929Z,92.29
2018-07-22T12:26:47.125Z,92.48
2018-07-22T12:27:47.333Z,91.22
2018-07-22T12:28:47.494Z,89.81
2018-07-22T12:29:47.679Z,90.00
2018-07-22T12:30:47.880Z,87.58
2018-07-22T12:31:48.075Z,90.30
2018-07-22T12:32:48.282Z,90.48
2018-07-22T12:33:48.452Z,90.78
2018-07-22T12:34:48.650Z,90.53
2018-07-22T12:35:48.837Z,86.02
2018-07-22T12:36:49.039Z,87.96
2018-07-22T12:37:49.232Z,87.63
2018-07-22T12:38:49.427Z,84.34
2018-07-22T12:39:49.614Z,82.50
2018-07-22T12:40:49.808Z,82.98
2018-07-22T12:41:50.014Z,84.63
2018-07-22T12:42:50.233Z,85.21
2018-07-22T12:43:50.425Z,86.72
2018-07-22T12:44:50.618Z,87.88
2018-07-22T12:45:50.810Z,86.33
2018-07-22T12:46:51.003Z,87.59
2018-07-22T12:47:51.194Z,88.13
2018-07-22T12:48:51.388Z,90.06
2018-07-22T12:49:51.597Z,91.37
2018-07-22T12:50:51.783Z,89.92
2018-07-22T12:51:51.975Z,88.85
2018-07-22T12:52:52.152Z,88.99
2018-07-22T12:53:52.422Z,88.46
2018-07-22T12:54:52.525Z,89.62
2018-07-22T12:55:52.730Z,90.88
2018-07-22T12:56:52.939Z,90.34
2018-07-22T12:57:53.150Z,90.69
2018-07-22T12:58:53.345Z,89.82
2018-07-22T12:59:53.535Z,90.20
2018-07-22T13:00:53.727Z,90.78
2018-07-22T13:01:53.916Z,89.92
2018-07-22T13:02:54.136Z,89.48
2018-07-22T13:03:54.304Z,89.82
2018-07-22T13:04:54.479Z,90.20
2018-07-22T13:05:54.700Z,89.92
2018-07-22T13:06:54.915Z,89.57
2018-07-22T13:07:55.073Z,88.07
2018-07-22T13:08:55.272Z,88.31
2018-07-22T13:09:55.480Z,87.24